68CA weather

Lake California Air Park
Cottonwood, California, United States

Public forecast

Using degrees Fahrenheit for public forecast. Weather courtesy of forecast.io.

Closest aviation weather report (METAR) to Lake California Air Park

Closest report is Redding Municipal Airport, 9.6 nm (17.7 km) NNW. Retrieved 2019/10/16 14:53 UTC (41 minutes ago):

KRDD 161453Z 00000KT 10SM CLR 06/01 A2999 RMK AO2 SLP155 T00560006 53002

Closest aviation forecast (TAF) to Lake California Air Park

Closest forecast is Redding Municipal Airport, 9.6 nm (17.7 km) NNW. Retrieved 2019/10/16 12:42 UTC (3 hours ago):

TAF KRDD 161139Z 1612/1712 VRB03KT P6SM FEW250 FM162100 18006KT P6SM BKN250 FM170300 19004KT P6SM BKN100 TEMPO 1703/1706 P6SM -SHRA BKN050